Time;durP1;ratioP1;P1;durP2;ratioP2;P2;SDS_P1;SDS_P2;PMS_P1;PMS_P2;Temp;Humidity;BMP_temperature;BMP_pressure;BME280_temperature;BME280_humidity;BME280_pressure;Samples;Min_cycle;Max_cycle;Signal;HPM_P1;HPM_P2
2021/09/08 00:01:54;;;;;;;6.00;5.40;;;;;;;16.28;90.15;101665.84;6314302;28;20187;-75
2021/09/08 00:05:00;;;;;;;7.00;5.15;;;;;;;16.21;90.45;101671.44;6314496;28;20184;-75
2021/09/08 00:08:05;;;;;;;7.38;5.63;;;;;;;16.21;90.31;101676.97;6314470;28;20184;-75
2021/09/08 00:11:11;;;;;;;5.50;5.00;;;;;;;16.20;90.49;101669.75;6314334;28;20208;-75
2021/09/08 00:14:17;;;;;;;9.82;5.25;;;;;;;16.14;91.12;101664.38;6312958;28;20191;-75
2021/09/08 00:17:21;;;;;;;7.15;5.07;;;;;;;16.02;91.78;101667.06;6314237;28;20183;-75
2021/09/08 00:20:26;;;;;;;5.78;5.38;;;;;;;16.07;91.61;101653.47;6314107;28;20192;-75
2021/09/08 00:23:30;;;;;;;7.53;5.13;;;;;;;16.15;90.93;101661.38;6314082;28;20249;-75
2021/09/08 00:26:35;;;;;;;8.13;5.93;;;;;;;16.03;91.64;101668.75;6312425;28;20498;-75
2021/09/08 00:29:40;;;;;;;6.25;5.43;;;;;;;16.07;91.53;101660.88;6313873;28;20211;-75
2021/09/08 00:32:47;;;;;;;5.32;4.90;;;;;;;15.97;92.20;101658.66;6313815;28;20183;-75
2021/09/08 00:35:53;;;;;;;6.78;5.13;;;;;;;16.02;91.96;101656.03;6313116;28;20184;-75
2021/09/08 00:38:57;;;;;;;8.85;5.10;;;;;;;15.98;92.49;101646.59;6312451;28;20501;-75
2021/09/08 00:42:09;;;;;;;5.88;5.43;;;;;;;16.07;91.54;101642.44;6313281;28;20267;-75
2021/09/08 00:45:15;;;;;;;7.22;5.60;;;;;;;16.02;92.03;101650.53;6312536;28;20183;-75
2021/09/08 00:48:21;;;;;;;8.35;5.70;;;;;;;16.07;91.75;101650.72;6312127;28;20246;-75
2021/09/08 00:51:25;;;;;;;6.93;5.22;;;;;;;16.01;92.34;101642.53;6312331;28;20211;-75
2021/09/08 00:54:38;;;;;;;8.48;5.50;;;;;;;15.91;92.64;101637.59;6313075;28;20190;-75
2021/09/08 00:57:45;;;;;;;6.30;5.70;;;;;;;15.95;92.49;101637.94;6313304;28;20301;-75
2021/09/08 01:00:52;;;;;;;6.45;5.07;;;;;;;15.99;92.24;101645.53;6313056;28;20193;-75
2021/09/08 01:03:59;;;;;;;6.60;5.10;;;;;;;15.92;92.39;101650.25;6312160;28;20215;-74
2021/09/08 01:07:07;;;;;;;6.88;5.18;;;;;;;15.85;93.34;101644.00;6312716;28;20199;-75
2021/09/08 01:10:14;;;;;;;6.50;4.80;;;;;;;15.87;92.67;101641.84;6311912;28;20235;-75
2021/09/08 01:13:19;;;;;;;6.20;5.45;;;;;;;15.85;93.39;101644.00;6312562;28;20183;-75
2021/09/08 01:16:26;;;;;;;6.53;5.82;;;;;;;15.89;92.88;101634.22;6312857;28;20222;-75
2021/09/08 01:19:30;;;;;;;6.32;4.85;;;;;;;15.79;93.65;101638.59;6312498;28;20247;-75
2021/09/08 01:22:42;;;;;;;7.47;6.20;;;;;;;15.92;92.87;101641.19;6312590;28;20187;-75
2021/09/08 01:25:46;;;;;;;6.20;5.60;;;;;;;16.00;92.56;101636.19;6312756;28;20246;-74
2021/09/08 01:28:50;;;;;;;10.27;5.35;;;;;;;15.92;92.49;101638.44;6311384;28;20302;-74
2021/09/08 01:31:57;;;;;;;5.90;5.03;;;;;;;15.93;92.58;101629.09;6312365;28;20208;-75
2021/09/08 01:35:01;;;;;;;7.15;5.15;;;;;;;15.92;92.87;101628.25;6311322;28;20530;-74
2021/09/08 01:38:08;;;;;;;7.13;5.45;;;;;;;15.91;93.12;101620.22;6312659;28;20190;-74
2021/09/08 01:41:12;;;;;;;8.40;5.75;;;;;;;15.86;93.15;101612.69;6311302;28;20218;-75
2021/09/08 01:44:19;;;;;;;6.45;5.85;;;;;;;15.84;93.73;101614.84;6312539;28;20183;-75
2021/09/08 01:47:23;;;;;;;11.32;5.70;;;;;;;15.77;94.14;101608.56;6312566;28;20246;-74
2021/09/08 01:50:27;;;;;;;7.80;5.93;;;;;;;15.83;94.05;101612.28;6311092;28;20216;-74
2021/09/08 01:53:32;;;;;;;7.03;5.85;;;;;;;15.83;93.59;101607.63;6312202;28;20262;-74
2021/09/08 01:56:42;;;;;;;9.02;5.53;;;;;;;15.81;93.95;101609.78;6312533;28;20184;-74
2021/09/08 01:59:52;;;;;;;7.85;5.82;;;;;;;15.82;93.99;101603.19;6310972;28;20191;-75
2021/09/08 02:02:57;;;;;;;7.20;5.28;;;;;;;15.88;93.55;101601.44;6317109;28;20252;-74
2021/09/08 02:06:17;;;;;;;6.47;5.45;;;;;;;15.82;93.82;101589.44;6316741;28;20264;-74
2021/09/08 02:09:24;;;;;;;10.88;5.93;;;;;;;15.92;93.04;101599.91;6317232;28;20183;-75
2021/09/08 02:12:37;;;;;;;8.40;6.03;;;;;;;15.83;93.67;101596.63;6316796;28;20207;-74
2021/09/08 02:16:09;;;;;;;6.82;5.30;;;;;;;15.77;94.11;101597.56;6315776;28;20402;-75
2021/09/08 02:19:50;;;;;;;10.85;6.07;;;;;;;15.81;93.88;101587.78;6317629;28;20223;-75
2021/09/08 02:23:19;;;;;;;6.82;5.47;;;;;;;15.78;93.94;101593.75;6315720;28;20479;-74
2021/09/08 02:26:45;;;;;;;6.93;5.82;;;;;;;15.65;95.29;101588.41;6313380;28;20214;-75
2021/09/08 02:30:20;;;;;;;6.57;5.82;;;;;;;15.82;93.79;101599.63;6315653;28;20200;-74
2021/09/08 02:33:43;;;;;;;7.35;6.13;;;;;;;15.75;94.05;101585.94;6315725;28;20456;-74
2021/09/08 02:37:05;;;;;;;8.35;5.78;;;;;;;15.82;93.61;101594.13;6315326;28;20409;-74
2021/09/08 02:40:30;;;;;;;6.18;5.25;;;;;;;15.78;93.85;101577.22;6313761;28;20206;-75
2021/09/08 02:43:53;;;;;;;7.03;6.38;;;;;;;15.80;93.83;101579.72;6314935;28;20218;-74
2021/09/08 02:47:24;;;;;;;7.80;5.70;;;;;;;15.81;93.86;101582.28;6315407;28;20267;-74
2021/09/08 02:50:46;;;;;;;6.35;5.90;;;;;;;15.76;94.50;101568.38;6315038;28;20180;-74
2021/09/08 02:54:05;;;;;;;8.30;6.05;;;;;;;15.74;94.46;101548.50;6314659;28;20261;-74
2021/09/08 02:57:23;;;;;;;10.20;6.05;;;;;;;15.67;95.07;101553.25;6314979;28;20557;-74
2021/09/08 03:00:58;;;;;;;9.95;6.15;;;;;;;15.73;94.43;101541.31;6316010;28;20234;-74
2021/09/08 03:04:35;;;;;;;13.25;6.22;;;;;;;15.85;93.84;101550.44;6315620;28;20210;-74
2021/09/08 03:08:24;;;;;;;7.50;5.25;;;;;;;15.78;94.01;101549.72;6314631;28;20223;-75
2021/09/08 03:11:43;;;;;;;6.45;5.85;;;;;;;15.65;95.16;101555.41;6314434;28;20527;-75
2021/09/08 03:14:49;;;;;;;7.65;5.95;;;;;;;15.69;94.82;101553.84;6314997;28;20187;-75
2021/09/08 03:17:54;;;;;;;8.75;5.95;;;;;;;15.79;94.45;101556.06;6314423;28;20183;-74
2021/09/08 03:21:00;;;;;;;10.23;6.00;;;;;;;15.74;94.50;101559.50;6314368;28;20374;-74
2021/09/08 03:24:05;;;;;;;11.10;6.60;;;;;;;15.79;94.44;101554.16;6315540;28;20184;-75
2021/09/08 03:27:11;;;;;;;10.70;5.57;;;;;;;15.86;93.74;101552.13;6314836;28;20235;-74
2021/09/08 03:30:16;;;;;;;11.10;6.07;;;;;;;15.90;93.73;101553.34;6314027;28;20338;-74
2021/09/08 03:33:21;;;;;;;12.02;6.30;;;;;;;15.84;93.52;101546.03;6315313;28;20211;-74
2021/09/08 03:36:25;;;;;;;6.85;5.65;;;;;;;15.88;93.56;101538.97;6315368;28;20184;-74
2021/09/08 03:39:29;;;;;;;10.43;6.35;;;;;;;15.86;93.69;101541.13;6314912;28;20187;-75
2021/09/08 03:42:35;;;;;;;7.50;6.05;;;;;;;15.86;94.02;101532.88;6313850;28;20630;-74
2021/09/08 03:45:39;;;;;;;7.85;5.95;;;;;;;15.90;94.21;101542.31;6314988;28;20247;-75
2021/09/08 03:48:46;;;;;;;10.70;6.00;;;;;;;15.92;93.84;101534.66;6314079;28;20190;-74
2021/09/08 03:51:50;;;;;;;6.43;5.82;;;;;;;15.92;93.44;101540.19;6313870;28;20324;-74
2021/09/08 03:54:54;;;;;;;6.65;5.82;;;;;;;16.01;93.05;101552.53;6314836;28;20215;-75
2021/09/08 03:57:58;;;;;;;6.63;5.57;;;;;;;16.00;93.43;101542.59;6313392;28;20206;-74
2021/09/08 04:01:02;;;;;;;6.28;5.70;;;;;;;16.05;92.69;101545.47;6314549;28;20184;-74
2021/09/08 04:04:08;;;;;;;10.88;5.45;;;;;;;16.08;92.72;101538.66;6313139;28;20374;-75
2021/09/08 04:07:14;;;;;;;6.80;5.75;;;;;;;15.99;93.44;101540.94;6313007;28;20381;-75
2021/09/08 04:10:18;;;;;;;7.22;5.80;;;;;;;15.91;94.04;101533.00;6313988;28;20183;-75
2021/09/08 04:13:22;;;;;;;6.90;6.13;;;;;;;15.97;93.64;101537.56;6314251;28;20218;-74
2021/09/08 04:16:29;;;;;;;6.97;5.82;;;;;;;15.97;94.05;101537.56;6312795;28;20467;-74
2021/09/08 04:19:35;;;;;;;6.35;5.75;;;;;;;16.11;92.65;101543.69;6313973;28;20183;-74
2021/09/08 04:22:39;;;;;;;7.30;6.20;;;;;;;16.01;93.58;101541.53;6312746;28;20479;-74
2021/09/08 04:25:44;;;;;;;11.75;6.28;;;;;;;16.08;93.11;101528.50;6313523;28;20335;-75
2021/09/08 04:28:48;;;;;;;6.72;5.55;;;;;;;16.09;93.35;101527.44;6313542;28;20231;-74
2021/09/08 04:31:52;;;;;;;8.30;5.68;;;;;;;16.03;93.47;101520.09;6312441;28;20206;-74
2021/09/08 04:34:57;;;;;;;6.47;5.88;;;;;;;16.04;93.65;101526.47;6313569;28;20215;-74
2021/09/08 04:38:05;;;;;;;8.32;5.70;;;;;;;15.98;93.82;101517.22;6313731;28;20251;-75
2021/09/08 04:41:11;;;;;;;7.57;5.97;;;;;;;16.18;92.41;101512.22;6312252;28;20192;-74
2021/09/08 04:44:15;;;;;;;6.22;5.63;;;;;;;16.11;93.04;101510.66;6313487;28;20219;-74
2021/09/08 04:47:21;;;;;;;6.60;5.80;;;;;;;16.20;92.08;101521.09;6313165;28;20262;-75
2021/09/08 04:50:26;;;;;;;7.18;5.60;;;;;;;16.17;92.34;101499.56;6313109;28;20190;-75
2021/09/08 04:53:30;;;;;;;14.02;6.07;;;;;;;16.22;92.02;101501.59;6312994;28;20283;-75
2021/09/08 04:56:42;;;;;;;8.05;6.30;;;;;;;16.29;91.58;101505.06;6313144;28;20184;-74
2021/09/08 04:59:46;;;;;;;6.88;6.20;;;;;;;16.33;91.51;101502.69;6312954;28;20215;-74
2021/09/08 05:02:52;;;;;;;11.63;5.95;;;;;;;16.18;92.77;101503.97;6312847;28;20219;-74
2021/09/08 05:05:58;;;;;;;8.68;5.82;;;;;;;16.20;92.57;101510.06;6312790;28;20258;-74
2021/09/08 05:09:02;;;;;;;9.95;5.78;;;;;;;16.26;92.29;101514.63;6313041;28;20190;-74
2021/09/08 05:12:10;;;;;;;10.35;6.18;;;;;;;16.31;92.10;101494.63;6311439;28;20471;-74
2021/09/08 05:15:14;;;;;;;7.75;6.18;;;;;;;16.35;92.24;101492.25;6312849;28;20229;-74
2021/09/08 05:18:18;;;;;;;11.15;6.20;;;;;;;16.40;92.01;101492.38;6312106;28;20183;-74
2021/09/08 05:21:24;;;;;;;7.03;6.10;;;;;;;16.39;92.08;101490.69;6311861;28;20215;-74
2021/09/08 05:24:28;;;;;;;11.25;6.65;;;;;;;16.41;92.30;101488.56;6312607;28;20188;-74
2021/09/08 05:27:32;;;;;;;9.35;6.13;;;;;;;16.42;92.09;101484.72;6312425;28;20230;-76
2021/09/08 05:30:37;;;;;;;7.05;5.80;;;;;;;16.38;92.38;101489.88;6312163;28;20191;-74
2021/09/08 05:33:41;;;;;;;9.52;6.00;;;;;;;16.37;92.79;101479.06;6312221;28;20211;-74
2021/09/08 05:36:47;;;;;;;6.70;6.00;;;;;;;16.41;93.05;101472.03;6310788;28;20480;-74
2021/09/08 05:39:51;;;;;;;10.00;6.55;;;;;;;16.51;92.31;101473.06;6312161;28;20285;-74
2021/09/08 05:42:58;;;;;;;6.60;6.00;;;;;;;16.60;91.89;101471.69;6311089;28;20211;-75
2021/09/08 05:46:02;;;;;;;8.48;6.10;;;;;;;16.66;91.47;101453.34;6312063;28;20184;-74
2021/09/08 05:49:06;;;;;;;7.22;5.97;;;;;;;16.71;91.45;101464.47;6312084;28;20191;-73
2021/09/08 05:52:12;;;;;;;9.95;6.22;;;;;;;16.76;91.28;101456.31;6310825;28;20183;-74
2021/09/08 05:55:16;;;;;;;6.97;5.82;;;;;;;16.79;91.36;101458.59;6310834;28;20505;-74
2021/09/08 05:58:21;;;;;;;8.52;6.13;;;;;;;16.72;91.80;101474.41;6310734;28;20264;-75
2021/09/08 06:01:25;;;;;;;6.63;5.82;;;;;;;16.74;92.02;101462.06;6310643;28;20467;-74
2021/09/08 06:04:30;;;;;;;6.75;5.85;;;;;;;16.65;92.64;101479.22;6310746;28;20241;-75
2021/09/08 06:07:35;;;;;;;9.18;6.15;;;;;;;16.84;91.62;101462.31;6311761;28;20183;-75
2021/09/08 06:10:40;;;;;;;14.05;6.95;;;;;;;16.85;91.32;101463.97;6311934;28;20190;-75
2021/09/08 06:13:44;;;;;;;8.38;6.20;;;;;;;16.98;90.73;101465.59;6312023;28;20214;-75
2021/09/08 06:16:48;;;;;;;10.90;6.60;;;;;;;16.95;91.20;101460.56;6311549;28;20184;-74
2021/09/08 06:19:52;;;;;;;8.38;6.20;;;;;;;17.01;90.74;101456.00;6312059;28;20203;-75
2021/09/08 06:23:01;;;;;;;8.48;6.32;;;;;;;16.99;91.27;101464.53;6311764;28;20192;-75
2021/09/08 06:26:05;;;;;;;7.53;6.63;;;;;;;17.03;91.22;101460.19;6311608;28;20184;-75
2021/09/08 06:29:10;;;;;;;11.15;6.18;;;;;;;17.02;90.80;101466.81;6310724;28;20235;-75
2021/09/08 06:32:15;;;;;;;7.35;5.85;;;;;;;17.06;91.27;101456.94;6311669;28;20191;-74
2021/09/08 06:35:19;;;;;;;6.57;5.90;;;;;;;17.01;91.44;101456.84;6311509;28;20218;-74
2021/09/08 06:38:27;;;;;;;8.32;5.65;;;;;;;17.03;91.15;101442.81;6311635;28;20184;-74
2021/09/08 06:41:31;;;;;;;6.90;5.78;;;;;;;17.11;90.58;101451.53;6311490;28;20326;-74
2021/09/08 06:44:35;;;;;;;8.48;5.47;;;;;;;17.16;90.44;101454.41;6311414;28;20233;-74
2021/09/08 06:47:40;;;;;;;6.68;5.97;;;;;;;17.14;90.37;101440.03;6312214;28;20183;-74
2021/09/08 06:50:44;;;;;;;8.80;5.80;;;;;;;17.13;90.43;101440.28;6316018;28;20183;-74
2021/09/08 06:53:49;;;;;;;8.10;5.40;;;;;;;17.20;89.89;101436.28;6314868;28;20274;-75
2021/09/08 06:56:56;;;;;;;8.88;5.63;;;;;;;17.19;90.21;101434.63;6316138;28;20247;-75
2021/09/08 07:00:00;;;;;;;7.25;6.15;;;;;;;17.16;89.88;101437.00;6315929;28;20187;-74
2021/09/08 07:03:05;;;;;;;6.53;5.10;;;;;;;17.15;90.04;101425.16;6314452;28;20530;-74
2021/09/08 07:06:10;;;;;;;6.95;6.30;;;;;;;17.17;90.16;101434.03;6314874;28;20220;-74
2021/09/08 07:09:16;;;;;;;8.48;5.78;;;;;;;17.13;90.51;101430.06;6314382;28;20247;-74
2021/09/08 07:12:20;;;;;;;7.63;5.70;;;;;;;17.20;90.30;101436.28;6315407;28;20184;-74
2021/09/08 07:15:24;;;;;;;9.63;5.38;;;;;;;17.29;89.90;101434.81;6314096;28;20444;-74
2021/09/08 07:18:29;;;;;;;7.13;5.63;;;;;;;17.26;90.27;101427.03;6315220;28;20184;-74
2021/09/08 07:21:33;;;;;;;5.53;5.00;;;;;;;17.25;89.71;101430.88;6314058;28;20184;-74
2021/09/08 07:24:39;;;;;;;7.03;5.18;;;;;;;17.24;90.05;101440.22;6315090;28;20188;-74
2021/09/08 07:27:43;;;;;;;5.47;5.07;;;;;;;17.08;90.72;101446.50;6315602;28;20298;-74
2021/09/08 07:30:53;;;;;;;5.43;4.97;;;;;;;17.21;90.05;101440.72;6315307;28;20183;-74
2021/09/08 07:33:58;;;;;;;5.53;4.97;;;;;;;17.29;89.75;101437.56;6315539;28;20214;-74
2021/09/08 07:37:03;;;;;;;9.07;5.07;;;;;;;17.31;89.36;101440.91;6313840;28;20483;-74
2021/09/08 07:40:11;;;;;;;7.55;4.97;;;;;;;17.39;89.56;101432.22;6314683;28;20190;-74
2021/09/08 07:43:15;;;;;;;5.65;5.25;;;;;;;17.40;89.32;101422.88;6315050;28;20183;-74
2021/09/08 07:46:24;;;;;;;7.50;5.50;;;;;;;17.47;89.12;101434.59;6313494;28;20254;-74
2021/09/08 07:49:29;;;;;;;9.35;5.38;;;;;;;17.52;88.98;101425.56;6313868;28;20237;-74
2021/09/08 07:52:33;;;;;;;8.75;5.22;;;;;;;17.72;87.51;101427.91;6314392;28;20184;-74
2021/09/08 07:55:41;;;;;;;5.53;4.85;;;;;;;17.67;87.69;101430.56;6313397;28;20488;-74
2021/09/08 07:58:45;;;;;;;8.77;5.15;;;;;;;17.70;87.76;101425.38;6313893;28;20190;-74
2021/09/08 08:01:50;;;;;;;5.55;4.57;;;;;;;17.80;87.08;101432.97;6314023;28;20216;-74
2021/09/08 08:04:54;;;;;;;7.20;4.65;;;;;;;17.90;87.44;101427.63;6314247;28;20195;-74
2021/09/08 08:07:59;;;;;;;5.28;4.95;;;;;;;17.92;86.42;101431.00;6312794;28;20192;-74
2021/09/08 08:11:04;;;;;;;5.78;5.22;;;;;;;18.03;87.37;101424.53;6313404;28;20246;-74
2021/09/08 08:14:09;;;;;;;5.60;5.20;;;;;;;18.00;87.60;101425.06;6313836;28;20190;-74
2021/09/08 08:17:16;;;;;;;8.32;4.82;;;;;;;18.04;86.12;101423.44;6312869;28;20206;-74
2021/09/08 08:20:20;;;;;;;5.38;4.97;;;;;;;18.02;85.96;101431.16;6313076;28;20183;-74
2021/09/08 08:23:25;;;;;;;5.45;4.93;;;;;;;18.01;85.92;101423.94;6313734;28;20229;-75
2021/09/08 08:26:31;;;;;;;5.13;4.80;;;;;;;18.00;86.35;101433.34;6312868;28;20274;-75
2021/09/08 08:29:35;;;;;;;5.03;4.75;;;;;;;18.06;86.70;101432.31;6313450;28;20263;-74
2021/09/08 08:32:40;;;;;;;5.85;5.00;;;;;;;18.03;86.72;101433.66;6313418;28;20269;-74
2021/09/08 08:35:44;;;;;;;6.00;4.70;;;;;;;18.19;86.19;101437.50;6312091;28;20238;-75
2021/09/08 08:38:48;;;;;;;11.32;4.85;;;;;;;18.23;85.61;101438.69;6312429;28;20183;-75
2021/09/08 08:41:53;;;;;;;5.13;4.90;;;;;;;18.34;86.31;101434.97;6312155;28;20525;-75
2021/09/08 08:44:58;;;;;;;5.05;4.63;;;;;;;18.32;84.87;101442.66;6312190;28;20483;-75
2021/09/08 08:48:08;;;;;;;7.88;4.10;;;;;;;18.26;84.99;101440.91;6312779;28;20184;-75
2021/09/08 08:51:12;;;;;;;4.90;4.63;;;;;;;18.40;84.60;101428.44;6313322;28;20251;-75
2021/09/08 08:54:16;;;;;;;4.47;4.15;;;;;;;18.51;84.46;101435.81;6313003;28;20183;-74
2021/09/08 08:57:22;;;;;;;4.25;3.85;;;;;;;18.54;84.06;101438.03;6313136;28;20265;-74
2021/09/08 09:00:26;;;;;;;4.60;4.22;;;;;;;18.63;83.40;101439.28;6311760;28;20475;-75
2021/09/08 09:03:31;;;;;;;5.65;4.22;;;;;;;18.69;83.06;101432.72;6313174;28;20278;-75
2021/09/08 09:06:40;;;;;;;4.50;4.18;;;;;;;18.70;83.55;101423.34;6311573;28;20187;-75
2021/09/08 09:09:49;;;;;;;5.07;3.88;;;;;;;18.84;82.56;101429.34;6312164;28;20226;-75
2021/09/08 09:12:54;;;;;;;4.10;3.80;;;;;;;18.84;81.63;101429.34;6310966;28;20348;-75
2021/09/08 09:16:04;;;;;;;5.65;3.95;;;;;;;18.88;81.24;101429.63;6312091;28;20211;-75
2021/09/08 09:19:13;;;;;;;5.15;3.70;;;;;;;18.97;80.71;101417.03;6312569;28;20188;-75
2021/09/08 09:22:18;;;;;;;3.72;3.53;;;;;;;18.96;81.09;101420.91;6312626;28;20229;-75
2021/09/08 09:25:25;;;;;;;3.92;3.15;;;;;;;19.11;80.94;101412.78;6312233;28;20219;-75
2021/09/08 09:28:30;;;;;;;3.90;3.40;;;;;;;19.16;81.24;101404.53;6312408;28;20227;-75
2021/09/08 09:31:50;;;;;;;3.90;3.70;;;;;;;19.21;80.16;101402.66;6312744;28;20187;-75
2021/09/08 09:34:57;;;;;;;4.18;3.80;;;;;;;19.33;80.52;101410.81;6311279;28;20183;-74
2021/09/08 09:38:04;;;;;;;3.67;3.40;;;;;;;19.43;79.46;101416.50;6311501;28;20250;-74
2021/09/08 09:41:10;;;;;;;3.75;3.60;;;;;;;19.55;79.51;101397.78;6311005;28;20472;-74
2021/09/08 09:44:16;;;;;;;6.07;3.80;;;;;;;19.55;78.29;101397.78;6310880;28;20574;-74
2021/09/08 09:47:20;;;;;;;4.80;3.25;;;;;;;19.71;79.01;101402.34;6312173;28;20210;-74
2021/09/08 09:50:25;;;;;;;4.93;3.35;;;;;;;19.83;78.73;101394.69;6310596;28;20389;-74
2021/09/08 09:53:32;;;;;;;3.50;3.20;;;;;;;19.86;77.73;101405.25;6312251;28;20233;-75
2021/09/08 09:56:37;;;;;;;3.78;3.58;;;;;;;19.88;77.08;101389.19;6311778;28;20207;-74
2021/09/08 09:59:44;;;;;;;5.47;3.50;;;;;;;19.90;76.68;101395.28;6312295;28;20314;-75
2021/09/08 10:02:49;;;;;;;3.65;3.45;;;;;;;19.89;76.68;101398.34;6310928;28;20475;-77
2021/09/08 10:05:54;;;;;;;2.95;2.75;;;;;;;19.96;75.70;101388.72;6311024;28;20218;-75
2021/09/08 10:09:02;;;;;;;5.28;3.33;;;;;;;20.05;75.78;101386.28;6311796;28;20191;-75
2021/09/08 10:12:10;;;;;;;3.50;3.30;;;;;;;20.08;75.98;101390.47;6311198;28;20190;-75
2021/09/08 10:15:17;;;;;;;3.22;3.05;;;;;;;20.05;75.71;101391.00;6311462;28;20251;-75
2021/09/08 10:18:25;;;;;;;3.42;3.13;;;;;;;20.05;74.69;101382.69;6311887;28;20188;-75
2021/09/08 10:21:29;;;;;;;3.08;2.70;;;;;;;20.02;74.33;101369.34;6312194;28;20190;-75
2021/09/08 10:24:33;;;;;;;3.30;3.10;;;;;;;20.09;74.17;101368.03;6315412;28;20492;-75
2021/09/08 10:27:39;;;;;;;3.05;2.90;;;;;;;20.04;74.16;101372.69;6316064;28;20228;-75
2021/09/08 10:30:46;;;;;;;3.10;2.90;;;;;;;19.97;73.92;101359.09;6316088;28;20184;-75
2021/09/08 10:33:56;;;;;;;3.35;3.10;;;;;;;19.97;74.54;101357.16;6316202;28;20218;-75
2021/09/08 10:37:01;;;;;;;6.25;2.90;;;;;;;20.06;74.53;101362.16;6314847;28;20207;-75
2021/09/08 10:40:12;;;;;;;2.50;2.40;;;;;;;20.10;74.25;101360.56;6316194;28;20211;-75
2021/09/08 10:43:27;;;;;;;3.53;3.03;;;;;;;20.21;74.51;101373.38;6316222;28;20230;-75
2021/09/08 10:46:57;;;;;;;3.17;2.95;;;;;;;20.26;73.43;101370.66;6316288;28;20194;-75
2021/09/08 10:50:02;;;;;;;2.70;2.50;;;;;;;20.34;74.49;101367.34;6315851;28;20188;-75
2021/09/08 10:53:30;;;;;;;3.10;3.00;;;;;;;20.43;73.00;101360.22;6314656;28;20494;-75
2021/09/08 10:56:42;;;;;;;3.05;2.85;;;;;;;20.45;72.62;101358.00;6314637;28;20440;-75
2021/09/08 11:00:01;;;;;;;10.98;3.30;;;;;;;20.41;72.10;101356.88;6317102;28;20183;-75
2021/09/08 11:03:24;;;;;;;9.40;3.50;;;;;;;20.40;72.84;101347.72;6316078;28;20184;-75
2021/09/08 11:06:40;;;;;;;2.45;2.30;;;;;;;20.36;71.28;101351.31;6313600;28;20218;-75
2021/09/08 11:09:45;;;;;;;2.90;2.65;;;;;;;20.44;70.58;101346.06;6316038;28;20191;-75
2021/09/08 11:12:51;;;;;;;2.90;2.55;;;;;;;20.42;71.27;101353.00;6316029;28;20261;-75
2021/09/08 11:15:55;;;;;;;3.50;2.50;;;;;;;20.38;71.94;101352.72;6315647;28;20256;-75
2021/09/08 11:19:03;;;;;;;4.10;2.38;;;;;;;20.44;70.66;101348.03;6315575;28;20215;-75
2021/09/08 11:22:07;;;;;;;5.13;2.38;;;;;;;20.44;70.98;101343.31;6315058;28;20184;-75
2021/09/08 11:25:13;;;;;;;2.88;2.67;;;;;;;20.44;71.60;101345.28;6315373;28;20183;-75
2021/09/08 11:28:17;;;;;;;3.38;2.67;;;;;;;20.52;71.35;101348.34;6313647;28;20227;-75
2021/09/08 11:31:21;;;;;;;2.88;2.67;;;;;;;20.51;70.80;101345.84;6315246;28;20184;-75
2021/09/08 11:34:30;;;;;;;2.30;2.08;;;;;;;20.48;70.10;101350.00;6313083;28;20451;-75
2021/09/08 11:37:34;;;;;;;2.50;2.30;;;;;;;20.59;71.17;101337.00;6314238;28;20277;-75
2021/09/08 11:40:41;;;;;;;2.60;2.40;;;;;;;20.59;70.63;101346.16;6314677;28;20183;-75
2021/09/08 11:43:49;;;;;;;3.22;2.25;;;;;;;20.65;69.86;101340.66;6314673;28;20184;-75
2021/09/08 11:46:53;;;;;;;2.25;2.10;;;;;;;20.59;70.04;101337.00;6314814;28;20187;-75
2021/09/08 11:50:02;;;;;;;11.48;2.58;;;;;;;20.63;68.97;101348.38;6314773;28;20190;-75
2021/09/08 11:53:07;;;;;;;2.65;2.30;;;;;;;20.70;69.40;101330.38;6314205;28;20184;-75
2021/09/08 11:56:13;;;;;;;2.42;2.30;;;;;;;20.71;69.38;101332.06;6313073;28;20285;-75
2021/09/08 11:59:25;;;;;;;2.33;2.28;;;;;;;20.76;68.77;101337.63;6313209;28;20532;-75
2021/09/08 12:02:29;;;;;;;2.33;2.22;;;;;;;20.74;69.37;101345.38;6313872;28;20251;-75
2021/09/08 12:05:35;;;;;;;2.35;2.25;;;;;;;20.67;69.97;101344.81;6314154;28;20183;-75
2021/09/08 12:08:48;;;;;;;2.50;2.40;;;;;;;20.68;70.32;101329.81;6314338;28;20255;-75
2021/09/08 12:12:19;;;;;;;2.30;2.30;;;;;;;20.74;70.33;101339.00;6313201;28;20241;-75
2021/09/08 12:16:06;;;;;;;2.47;2.38;;;;;;;20.80;70.99;101332.38;6359058;27;20822;-75
2021/09/08 12:19:31;;;;;;;4.05;2.47;;;;;;;20.78;70.02;101335.41;6358167;28;20247;-74
2021/09/08 12:22:53;;;;;;;2.55;2.40;;;;;;;20.77;70.06;101333.75;6358238;28;20179;-74
2021/09/08 12:26:21;;;;;;;2.42;2.40;;;;;;;20.76;69.62;101321.00;6319458;28;20205;-74
2021/09/08 12:29:48;;;;;;;2.92;2.55;;;;;;;20.82;69.29;101313.53;6358562;28;20221;-74
2021/09/08 12:33:13;;;;;;;2.75;2.65;;;;;;;20.75;69.30;101316.53;6358468;28;20202;-74
2021/09/08 12:36:35;;;;;;;2.45;2.35;;;;;;;20.84;69.64;101317.69;6347137;28;20224;-75
2021/09/08 12:39:53;;;;;;;2.80;2.47;;;;;;;20.92;69.66;101313.53;6358957;28;20191;-75
2021/09/08 12:43:31;;;;;;;3.47;2.55;;;;;;;20.96;69.71;101326.59;6305297;28;20481;-74
2021/09/08 12:47:06;;;;;;;2.67;2.47;;;;;;;21.03;68.93;101309.69;6291234;28;20281;-75
2021/09/08 12:50:29;;;;;;;2.85;2.65;;;;;;;21.03;68.83;101298.59;6357767;28;20202;-74
2021/09/08 12:53:49;;;;;;;2.63;2.50;;;;;;;21.09;68.57;101298.34;6357505;28;20210;-74
2021/09/08 12:56:54;;;;;;;2.67;2.38;;;;;;;21.12;68.63;101306.13;6357142;28;20414;-74
2021/09/08 12:59:58;;;;;;;4.30;2.63;;;;;;;21.10;68.78;101307.50;6358350;28;20183;-74
2021/09/08 13:03:02;;;;;;;2.42;2.22;;;;;;;21.14;67.91;101306.66;6357213;28;20189;-74
2021/09/08 13:06:08;;;;;;;5.75;2.40;;;;;;;21.21;67.39;101298.91;6357127;28;20478;-74
2021/09/08 13:09:13;;;;;;;2.63;2.10;;;;;;;21.26;67.47;101302.81;6358281;28;20182;-74
2021/09/08 13:12:17;;;;;;;3.13;2.38;;;;;;;21.30;67.75;101309.47;6358296;28;20183;-74
2021/09/08 13:15:43;;;;;;;2.22;2.13;;;;;;;21.28;68.19;101320.00;6356782;28;20238;-74
2021/09/08 13:18:47;;;;;;;2.92;2.58;;;;;;;21.31;67.28;101328.63;6358283;28;20183;-74
2021/09/08 13:21:53;;;;;;;2.30;2.20;;;;;;;21.32;67.96;101323.88;6356959;28;20183;-75
2021/09/08 13:24:57;;;;;;;2.22;2.22;;;;;;;21.36;67.94;101319.47;6353569;28;20194;-74
2021/09/08 13:28:06;;;;;;;2.17;2.03;;;;;;;21.31;67.13;101305.59;6340654;28;20183;-74
2021/09/08 13:31:13;;;;;;;2.60;2.50;;;;;;;21.26;68.01;101313.91;6340219;28;20183;-75
2021/09/08 13:34:18;;;;;;;2.58;2.50;;;;;;;21.27;67.49;101315.56;6339976;28;20238;-74
2021/09/08 13:37:23;;;;;;;5.07;2.30;;;;;;;21.29;67.25;101316.13;6340291;28;20250;-75
2021/09/08 13:40:27;;;;;;;3.45;2.22;;;;;;;21.36;66.68;101308.38;6339917;28;20427;-74
2021/09/08 13:43:31;;;;;;;2.08;2.08;;;;;;;21.43;66.53;101320.00;6340290;28;20214;-74
2021/09/08 13:46:36;;;;;;;4.97;2.38;;;;;;;21.43;66.68;101314.47;6338997;28;20191;-74
2021/09/08 13:49:41;;;;;;;3.33;2.35;;;;;;;21.48;65.99;101306.13;6339982;28;20190;-74
2021/09/08 13:52:46;;;;;;;2.10;2.00;;;;;;;21.52;65.26;101312.81;6340583;28;20183;-75
2021/09/08 13:55:51;;;;;;;2.95;2.00;;;;;;;21.53;65.33;101311.69;6340135;28;20211;-74
2021/09/08 13:59:15;;;;;;;3.58;2.08;;;;;;;21.60;65.64;101310.28;6338842;28;20513;-74
2021/09/08 14:02:22;;;;;;;5.45;2.20;;;;;;;21.61;65.38;101309.19;6338780;28;20522;-73
2021/09/08 14:05:29;;;;;;;5.03;2.40;;;;;;;21.65;64.88;101301.97;6339844;28;20250;-73
2021/09/08 14:08:34;;;;;;;1.98;1.98;;;;;;;21.61;65.34;101311.13;6339692;28;20246;-75
2021/09/08 14:11:39;;;;;;;2.10;2.00;;;;;;;21.58;64.79;101320.00;6339616;28;20221;-74
2021/09/08 14:14:48;;;;;;;2.20;2.00;;;;;;;21.58;64.00;101312.53;6338631;28;20288;-74
2021/09/08 14:17:55;;;;;;;2.75;2.00;;;;;;;21.63;65.16;101308.91;6339023;28;20182;-76
2021/09/08 14:21:01;;;;;;;2.08;1.98;;;;;;;21.66;64.46;101313.91;6339618;28;20214;-75
2021/09/08 14:24:07;;;;;;;2.17;1.95;;;;;;;21.67;64.29;101310.03;6338855;28;20182;-75
2021/09/08 14:27:11;;;;;;;3.00;2.40;;;;;;;21.70;63.41;101309.44;6339443;28;20206;-75
2021/09/08 14:30:17;;;;;;;5.80;2.33;;;;;;;21.67;63.26;101310.03;6338791;28;20257;-75
2021/09/08 14:33:22;;;;;;;3.15;1.80;;;;;;;21.69;63.57;101299.47;6339185;28;20183;-75
2021/09/08 14:36:26;;;;;;;2.10;2.00;;;;;;;21.73;63.48;101314.44;6338002;28;20225;-75